Pagrindinis puslapis
METAR-TAF:

METAR-TAF

Oro uostai :

Džida, Saudo Arabija

platuma: 21-42N, ilguma: 039-11E, Aukštis: 15 m

Dabartinis oras

Ataskaita buvo paskelbta 57 minutes, ne 23:00 UTC
Vėjas 6 kt iš Šiaurės/Šiaurės Vakarų
Temperatūra 28°C
Drėgmė 58%
Slėgis 1009 hPa
Matomumas 10 km arba daugiau
nėra debesų žemiau 1500 m ir nėra kamuolinių lietaus debesų

METAR: OEJN 072300Z 33006KT CAVOK 28/19 Q1009 NOSIG

Laikas: 02:57 (23:57 UTC)

Prognozė

Ataskaita buvo paskelbta 57 minutes, ne 23:00 UTC
Prognozė galioja nuo 08 metu 00 UTC su 09 metu 06 UTC
Vėjas 3 kt nuo kintamojo kryptimis
Matomumas 10 km arba daugiau
nėra debesų žemiau 1500 m ir nėra kamuolinių lietaus debesų
Tapsmas
nuo 08 metu 06 UTC su 08 metu 08 UTC
Vėjas 15 kt iš Vakarų/Šiaurės Vakarų
Tapsmas
nuo 08 metu 18 UTC su 08 metu 20 UTC
Vėjas 3 kt nuo kintamojo kryptimis

TAF: OEJN 072300Z 0800/0906 VRB03KT CAVOK BECMG 0806/0808 30015KT BECMG 0818/0820 VRB03KT

Orai ataskaitas ir orų prognozės (METAR, TAF).

turimą stotys yra geltonos ir raudonos taškus žemėlapyje.

Perkelti pele per norėdami pamatyti stoties vardą.

Tada spustelėkite, norėdami matyti oro stebėjimo ir prognozės.

Norėdami pakeisti žemėlapį: spustelėkite ant žalios mygtukų su juodo kryžiaus žemyn,; žalią mygtuką su brūkšneliu, jei norite nutolinti; arba žalių rodyklių gretimoms žemėlapius.


METAR-TAF: